createdAt,value
2023-04-08T00:02:10.752Z,84.23
2023-04-08T00:05:13.513Z,84.25
2023-04-08T00:08:16.730Z,84.50
2023-04-08T00:11:19.519Z,84.78
2023-04-08T00:14:22.169Z,84.65
2023-04-08T00:17:27.128Z,84.90
2023-04-08T00:20:29.880Z,84.69
2023-04-08T00:23:32.582Z,84.67
2023-04-08T00:26:35.421Z,85.32
2023-04-08T00:29:38.153Z,85.09
2023-04-08T00:32:42.316Z,85.00
2023-04-08T00:35:46.258Z,85.02
2023-04-08T00:38:49.188Z,85.23
2023-04-08T00:41:52.112Z,85.19
2023-04-08T00:44:54.841Z,85.15
2023-04-08T00:47:59.067Z,85.19
2023-04-08T00:51:02.156Z,84.92
2023-04-08T00:54:05.644Z,85.15
2023-04-08T00:57:09.229Z,85.41
2023-04-08T01:00:13.180Z,85.39
2023-04-08T01:03:25.547Z,85.27
2023-04-08T01:06:33.482Z,85.65
2023-04-08T01:09:40.322Z,85.75
2023-04-08T01:12:49.361Z,86.08
2023-04-08T01:15:52.604Z,86.03
2023-04-08T01:18:57.710Z,86.19
2023-04-08T01:22:12.472Z,86.25
2023-04-08T01:25:19.796Z,86.40
2023-04-08T01:28:26.056Z,86.21
2023-04-08T01:31:30.656Z,86.31
2023-04-08T01:34:35.281Z,86.37
2023-04-08T01:37:39.766Z,86.34
2023-04-08T01:40:43.568Z,86.32
2023-04-08T01:43:49.704Z,86.74
2023-04-08T01:46:54.069Z,86.83
2023-04-08T01:49:58.709Z,87.01
2023-04-08T01:53:03.184Z,87.16
2023-04-08T01:56:08.387Z,86.94
2023-04-08T01:59:16.769Z,87.15
2023-04-08T02:02:22.385Z,86.98
2023-04-08T02:05:25.342Z,87.11
2023-04-08T02:08:28.242Z,87.23
2023-04-08T02:11:31.686Z,87.10
2023-04-08T02:14:35.933Z,87.58
2023-04-08T02:17:45.563Z,87.58
2023-04-08T02:20:53.577Z,87.54
2023-04-08T02:23:57.808Z,87.96
2023-04-08T02:27:01.674Z,87.93
2023-04-08T02:30:08.262Z,88.19
2023-04-08T02:33:12.799Z,88.15
2023-04-08T02:36:16.569Z,88.33
2023-04-08T02:39:19.515Z,88.82
2023-04-08T02:42:22.169Z,88.81
2023-04-08T02:45:30.022Z,89.18
2023-04-08T02:48:32.864Z,89.17
2023-04-08T02:51:35.510Z,89.45
2023-04-08T02:54:38.176Z,89.58
2023-04-08T02:57:41.868Z,89.59
2023-04-08T03:00:46.204Z,89.84
2023-04-08T03:03:49.146Z,89.91
2023-04-08T03:06:51.945Z,89.83
2023-04-08T03:09:55.939Z,90.18
2023-04-08T03:12:58.595Z,90.15
2023-04-08T03:16:03.382Z,90.35
2023-04-08T03:19:06.064Z,90.68
2023-04-08T03:22:09.741Z,90.74
2023-04-08T03:25:12.711Z,90.54
2023-04-08T03:28:15.454Z,91.61
2023-04-08T03:31:21.239Z,91.95
2023-04-08T03:34:24.004Z,93.07
2023-04-08T03:37:26.804Z,93.78
2023-04-08T03:40:29.548Z,94.15
2023-04-08T03:43:32.686Z,94.81
2023-04-08T03:46:36.789Z,95.46
2023-04-08T03:49:39.455Z,96.26
2023-04-08T03:52:42.188Z,96.28
2023-04-08T03:55:44.836Z,96.49
2023-04-08T03:58:52.438Z,96.60
2023-04-08T04:01:57.000Z,96.92
2023-04-08T04:04:59.745Z,97.41
2023-04-08T04:08:02.742Z,97.49
2023-04-08T04:11:05.484Z,97.86
2023-04-08T04:14:08.141Z,97.82
2023-04-08T04:17:12.196Z,98.09
2023-04-08T04:20:15.346Z,98.04
2023-04-08T04:23:18.018Z,98.52
2023-04-08T04:26:21.489Z,98.84
2023-04-08T04:29:26.548Z,99.08
2023-04-08T04:32:30.605Z,99.17
2023-04-08T04:35:33.638Z,99.11
2023-04-08T04:38:37.032Z,98.76
2023-04-08T04:41:40.657Z,98.42
2023-04-08T04:44:44.581Z,98.31
2023-04-08T04:47:48.593Z,98.39
2023-04-08T04:50:56.375Z,98.09
2023-04-08T04:53:59.021Z,97.85
2023-04-08T04:57:02.001Z,97.58
2023-04-08T05:00:05.774Z,97.81
2023-04-08T05:03:10.056Z,97.90
2023-04-08T05:06:12.848Z,98.10
2023-04-08T05:09:15.555Z,98.13
2023-04-08T05:12:20.506Z,97.74
2023-04-08T05:15:23.665Z,97.53
2023-04-08T05:18:27.742Z,97.53
2023-04-08T05:21:30.650Z,97.53
2023-04-08T05:24:33.271Z,97.01
2023-04-08T05:27:36.178Z,96.50
2023-04-08T05:30:40.977Z,95.98
2023-04-08T05:33:44.960Z,95.43
2023-04-08T05:36:47.575Z,96.09
2023-04-08T05:39:50.663Z,96.77
2023-04-08T05:42:53.365Z,96.57
2023-04-08T05:45:56.141Z,96.77
2023-04-08T05:49:00.384Z,96.98
2023-04-08T05:52:03.763Z,96.89
2023-04-08T05:55:08.381Z,96.63
2023-04-08T05:58:11.037Z,96.25
2023-04-08T06:01:14.211Z,96.16
2023-04-08T06:04:18.548Z,96.50
2023-04-08T06:07:21.405Z,97.04
2023-04-08T06:10:24.056Z,96.85
2023-04-08T06:13:26.645Z,96.85
2023-04-08T06:16:29.335Z,96.95
2023-04-08T06:19:33.362Z,96.74
2023-04-08T06:22:36.104Z,95.99
2023-04-08T06:25:38.786Z,96.14
2023-04-08T06:28:41.526Z,95.41
2023-04-08T06:31:44.192Z,94.80
2023-04-08T06:34:48.228Z,94.15
2023-04-08T06:37:51.381Z,93.95
2023-04-08T06:40:54.051Z,93.53
2023-04-08T06:43:57.909Z,92.64
2023-04-08T06:47:00.796Z,91.97
2023-04-08T06:50:05.143Z,91.26
2023-04-08T06:53:08.472Z,89.74
2023-04-08T06:56:11.400Z,88.47
2023-04-08T06:59:14.114Z,87.94
2023-04-08T07:02:16.872Z,87.40
2023-04-08T07:05:21.151Z,86.76
2023-04-08T07:08:23.904Z,86.54
2023-04-08T07:11:26.713Z,85.95
2023-04-08T07:14:29.898Z,84.97
2023-04-08T07:17:32.601Z,84.64
2023-04-08T07:20:38.456Z,84.61
2023-04-08T07:23:41.220Z,83.90
2023-04-08T07:26:43.906Z,83.06
2023-04-08T07:29:46.648Z,82.45
2023-04-08T07:32:51.722Z,81.79
2023-04-08T07:35:55.760Z,81.10
2023-04-08T07:38:58.445Z,80.61
2023-04-08T07:42:01.382Z,80.47
2023-04-08T07:45:04.608Z,80.32
2023-04-08T07:48:07.805Z,80.62
2023-04-08T07:51:11.864Z,79.56
2023-04-08T07:54:17.378Z,79.54
2023-04-08T07:57:20.143Z,79.28
2023-04-08T08:00:23.091Z,78.75
2023-04-08T08:03:26.058Z,78.86
2023-04-08T08:06:33.496Z,78.92
2023-04-08T08:09:36.330Z,78.43
2023-04-08T08:12:39.002Z,78.04
2023-04-08T08:15:41.749Z,77.27
2023-04-08T08:18:44.509Z,76.71
2023-04-08T08:21:48.541Z,75.30
2023-04-08T08:24:56.346Z,75.21
2023-04-08T08:27:58.992Z,74.79
2023-04-08T08:31:02.344Z,74.78
2023-04-08T08:34:05.486Z,74.27
2023-04-08T08:37:09.616Z,73.83
2023-04-08T08:40:13.245Z,71.89
2023-04-08T08:43:16.959Z,72.04
2023-04-08T08:46:19.938Z,72.67
2023-04-08T08:49:23.818Z,73.28
2023-04-08T08:52:27.899Z,73.49
2023-04-08T08:55:50.766Z,73.03
2023-04-08T08:58:57.682Z,72.66
2023-04-08T09:02:00.481Z,72.30
2023-04-08T09:05:06.137Z,72.57
2023-04-08T09:08:24.592Z,71.30
2023-04-08T09:11:27.274Z,69.36
2023-04-08T09:14:30.205Z,66.16
2023-04-08T09:17:34.147Z,65.03
2023-04-08T09:20:36.734Z,61.28
2023-04-08T09:23:45.037Z,61.62
2023-04-08T09:26:48.026Z,61.98
2023-04-08T09:29:50.741Z,60.23
2023-04-08T09:32:55.044Z,60.59
2023-04-08T09:35:58.416Z,62.35
2023-04-08T09:39:02.513Z,61.74
2023-04-08T09:42:10.440Z,57.47
2023-04-08T09:45:13.901Z,57.15
2023-04-08T09:48:19.430Z,58.49
2023-04-08T09:51:25.103Z,57.30
2023-04-08T09:54:39.043Z,57.33
2023-04-08T09:57:43.510Z,57.01
2023-04-08T10:00:50.632Z,56.00
2023-04-08T10:03:57.620Z,56.09
2023-04-08T10:07:06.229Z,57.47
2023-04-08T10:10:11.972Z,58.13
2023-04-08T10:13:15.028Z,57.98
2023-04-08T10:16:27.417Z,57.00
2023-04-08T10:19:41.744Z,56.86
2023-04-08T10:22:49.220Z,57.52
2023-04-08T10:25:53.191Z,55.61
2023-04-08T10:28:55.892Z,54.83
2023-04-08T10:31:58.663Z,54.06
2023-04-08T10:35:01.631Z,50.61
2023-04-08T10:38:04.767Z,49.48
2023-04-08T10:41:09.082Z,49.11
2023-04-08T10:44:18.346Z,49.39
2023-04-08T10:47:27.332Z,48.87
2023-04-08T10:50:29.999Z,49.75
2023-04-08T10:53:34.660Z,49.02
2023-04-08T10:56:45.541Z,48.37
2023-04-08T10:59:48.326Z,49.36
2023-04-08T11:02:51.068Z,50.07
2023-04-08T11:05:54.142Z,48.54
2023-04-08T11:09:00.147Z,47.50
2023-04-08T11:12:05.722Z,48.55
2023-04-08T11:15:09.787Z,46.24
2023-04-08T11:18:12.552Z,45.55
2023-04-08T11:21:16.222Z,45.18
2023-04-08T11:24:19.121Z,46.36
2023-04-08T11:27:26.143Z,46.03
2023-04-08T11:30:30.962Z,46.21
2023-04-08T11:33:34.949Z,46.54
2023-04-08T11:36:38.648Z,46.76
2023-04-08T11:39:43.612Z,45.96
2023-04-08T11:42:48.303Z,46.72
2023-04-08T11:45:51.638Z,45.14
2023-04-08T11:49:15.548Z,45.16
2023-04-08T11:52:18.420Z,44.90
2023-04-08T11:55:25.439Z,46.42
2023-04-08T11:58:29.441Z,47.30
2023-04-08T12:01:33.273Z,47.60
2023-04-08T12:04:36.009Z,47.69
2023-04-08T12:07:38.654Z,47.81
2023-04-08T12:10:41.408Z,47.21
2023-04-08T12:13:45.665Z,47.24
2023-04-08T12:16:48.444Z,47.01
2023-04-08T12:19:51.110Z,45.73
2023-04-08T12:22:53.762Z,45.84
2023-04-08T12:25:56.586Z,46.02
2023-04-08T12:29:00.899Z,45.69
2023-04-08T12:32:04.319Z,45.63
2023-04-08T12:35:07.274Z,45.37
2023-04-08T12:38:09.978Z,43.61
2023-04-08T12:41:12.702Z,44.57
2023-04-08T12:44:16.693Z,43.94
2023-04-08T12:47:19.764Z,42.56
2023-04-08T12:50:23.570Z,44.30
2023-04-08T12:53:26.396Z,44.91
2023-04-08T12:56:29.031Z,45.89
2023-04-08T12:59:33.527Z,45.55
2023-04-08T13:02:36.640Z,46.37
2023-04-08T13:05:43.371Z,47.39
2023-04-08T13:08:47.452Z,46.94
2023-04-08T13:11:50.560Z,47.42
2023-04-08T13:14:55.213Z,48.17
2023-04-08T13:17:57.920Z,47.55
2023-04-08T13:21:00.722Z,47.99
2023-04-08T13:24:03.725Z,48.07
2023-04-08T13:27:06.691Z,48.49
2023-04-08T13:30:12.346Z,49.20
2023-04-08T13:33:15.718Z,49.67
2023-04-08T13:36:18.720Z,49.72
2023-04-08T13:39:21.921Z,50.86
2023-04-08T13:42:25.708Z,51.50
2023-04-08T13:45:29.907Z,51.37
2023-04-08T13:48:32.529Z,52.03
2023-04-08T13:51:35.354Z,52.44
2023-04-08T13:54:38.256Z,52.93
2023-04-08T13:57:41.120Z,52.85
2023-04-08T14:00:45.373Z,52.92
2023-04-08T14:03:51.657Z,53.48
2023-04-08T14:06:54.306Z,52.77
2023-04-08T14:09:57.395Z,52.96
2023-04-08T14:13:00.022Z,52.82
2023-04-08T14:16:05.030Z,53.41
2023-04-08T14:19:07.694Z,53.74
2023-04-08T14:22:10.436Z,54.16
2023-04-08T14:25:13.164Z,54.34
2023-04-08T14:28:15.795Z,54.02
2023-04-08T14:31:19.889Z,53.93
2023-04-08T14:34:22.613Z,53.32
2023-04-08T14:37:25.267Z,53.60
2023-04-08T14:40:28.028Z,53.33
2023-04-08T14:43:30.764Z,53.35
2023-04-08T14:46:34.914Z,53.37
2023-04-08T14:49:37.765Z,54.04
2023-04-08T14:52:40.677Z,54.04
2023-04-08T14:55:43.426Z,54.16
2023-04-08T14:58:46.150Z,53.75
2023-04-08T15:01:50.287Z,53.78
2023-04-08T15:04:53.778Z,53.78
2023-04-08T15:07:56.485Z,53.84
2023-04-08T15:10:59.112Z,53.20
2023-04-08T15:14:01.841Z,53.01
2023-04-08T15:17:05.805Z,51.79
2023-04-08T15:20:09.980Z,49.97
2023-04-08T15:23:12.799Z,50.08
2023-04-08T15:26:15.517Z,49.77
2023-04-08T15:29:18.159Z,50.31
2023-04-08T15:32:22.193Z,50.78
2023-04-08T15:35:24.924Z,51.52
2023-04-08T15:38:28.110Z,51.32
2023-04-08T15:41:32.288Z,50.75
2023-04-08T15:44:35.093Z,51.39
2023-04-08T15:47:39.174Z,52.07
2023-04-08T15:50:42.169Z,52.26
2023-04-08T15:53:45.077Z,52.92
2023-04-08T15:56:48.114Z,53.06
2023-04-08T15:59:50.788Z,53.00
2023-04-08T16:02:55.142Z,53.42
2023-04-08T16:05:58.453Z,54.08
2023-04-08T16:09:01.178Z,54.06
2023-04-08T16:12:04.007Z,53.81
2023-04-08T16:15:08.770Z,53.63
2023-04-08T16:18:13.399Z,53.81
2023-04-08T16:21:16.311Z,53.66
2023-04-08T16:24:20.847Z,53.59
2023-04-08T16:27:23.611Z,53.63
2023-04-08T16:30:26.415Z,53.75
2023-04-08T16:33:30.921Z,54.13
2023-04-08T16:36:33.627Z,54.60
2023-04-08T16:39:36.507Z,54.91
2023-04-08T16:42:39.145Z,54.68
2023-04-08T16:45:41.940Z,54.86
2023-04-08T16:48:46.432Z,54.87
2023-04-08T16:51:49.128Z,55.42
2023-04-08T16:54:52.294Z,56.03
2023-04-08T16:57:55.076Z,56.49
2023-04-08T17:00:57.915Z,57.00
2023-04-08T17:04:02.877Z,57.29
2023-04-08T17:07:05.626Z,57.36
2023-04-08T17:10:09.464Z,57.84
2023-04-08T17:13:14.681Z,58.28
2023-04-08T17:16:19.172Z,59.49
2023-04-08T17:19:23.422Z,59.07
2023-04-08T17:22:26.557Z,59.79
2023-04-08T17:25:29.436Z,59.54
2023-04-08T17:28:32.533Z,59.25
2023-04-08T17:31:36.168Z,59.28
2023-04-08T17:34:41.013Z,59.38
2023-04-08T17:37:43.723Z,59.27
2023-04-08T17:40:46.993Z,58.41
2023-04-08T17:43:49.958Z,58.28
2023-04-08T17:46:52.777Z,58.54
2023-04-08T17:49:57.032Z,58.86
2023-04-08T17:52:59.861Z,58.86
2023-04-08T17:56:05.808Z,58.35
2023-04-08T17:59:08.563Z,58.60
2023-04-08T18:02:11.410Z,58.75
2023-04-08T18:05:15.606Z,58.87
2023-04-08T18:08:19.673Z,59.20
2023-04-08T18:11:24.220Z,58.66
2023-04-08T18:14:27.465Z,58.30
2023-04-08T18:17:30.276Z,57.56
2023-04-08T18:20:37.562Z,56.47
2023-04-08T18:23:40.622Z,57.51
2023-04-08T18:26:43.975Z,57.27
2023-04-08T18:29:48.945Z,57.79
2023-04-08T18:32:51.710Z,57.73
2023-04-08T18:35:57.658Z,57.76
2023-04-08T18:39:03.094Z,57.66
2023-04-08T18:42:05.795Z,58.52
2023-04-08T18:45:09.090Z,57.82
2023-04-08T18:48:12.334Z,57.83
2023-04-08T18:51:16.635Z,58.34
2023-04-08T18:54:19.291Z,58.66
2023-04-08T18:57:21.944Z,58.39
2023-04-08T19:00:24.963Z,58.61
2023-04-08T19:03:27.689Z,59.57
2023-04-08T19:06:35.390Z,59.51
2023-04-08T19:09:38.041Z,59.65
2023-04-08T19:12:40.941Z,60.34
2023-04-08T19:15:43.641Z,60.26
2023-04-08T19:18:46.364Z,60.68
2023-04-08T19:21:50.391Z,60.83
2023-04-08T19:24:54.944Z,60.91
2023-04-08T19:27:57.888Z,61.41
2023-04-08T19:31:02.224Z,61.49
2023-04-08T19:34:04.932Z,61.66
2023-04-08T19:37:08.917Z,62.12
2023-04-08T19:40:12.848Z,62.23
2023-04-08T19:43:15.658Z,62.74
2023-04-08T19:46:18.387Z,62.44
2023-04-08T19:49:21.722Z,62.82
2023-04-08T19:52:26.588Z,62.46
2023-04-08T19:55:29.788Z,62.88
2023-04-08T19:58:32.446Z,63.06
2023-04-08T20:01:36.623Z,62.99
2023-04-08T20:04:39.481Z,62.75
2023-04-08T20:07:44.035Z,62.20
2023-04-08T20:10:49.116Z,62.08
2023-04-08T20:13:51.805Z,61.88
2023-04-08T20:16:54.508Z,62.16
2023-04-08T20:19:57.258Z,62.03
2023-04-08T20:23:02.106Z,62.13
2023-04-08T20:26:04.824Z,61.71
2023-04-08T20:29:07.706Z,61.86
2023-04-08T20:32:10.477Z,61.69
2023-04-08T20:35:13.403Z,61.85
2023-04-08T20:38:17.884Z,61.57
2023-04-08T20:41:21.051Z,61.50
2023-04-08T20:44:23.890Z,60.93
2023-04-08T20:47:26.584Z,61.63
2023-04-08T20:50:30.162Z,61.79
2023-04-08T20:53:34.556Z,61.76
2023-04-08T20:56:37.254Z,61.77
2023-04-08T20:59:39.988Z,62.14
2023-04-08T21:02:42.899Z,62.40
2023-04-08T21:05:46.651Z,62.68
2023-04-08T21:08:51.539Z,63.42
2023-04-08T21:11:54.599Z,63.58
2023-04-08T21:14:58.046Z,64.12
2023-04-08T21:18:00.840Z,64.68
2023-04-08T21:21:03.651Z,65.32
2023-04-08T21:24:09.433Z,65.79
2023-04-08T21:27:12.073Z,66.09
2023-04-08T21:30:16.828Z,66.58
2023-04-08T21:33:19.683Z,67.08
2023-04-08T21:36:22.452Z,67.26
2023-04-08T21:39:26.882Z,67.88
2023-04-08T21:42:30.005Z,68.07
2023-04-08T21:45:33.042Z,68.75
2023-04-08T21:48:36.012Z,68.92
2023-04-08T21:51:40.828Z,69.46
2023-04-08T21:54:44.878Z,69.62
2023-04-08T21:57:49.028Z,70.35
2023-04-08T22:00:53.073Z,72.11
2023-04-08T22:03:57.396Z,73.94
2023-04-08T22:07:00.147Z,74.86
2023-04-08T22:10:05.054Z,74.29
2023-04-08T22:13:07.738Z,74.42
2023-04-08T22:16:11.174Z,74.31
2023-04-08T22:19:13.820Z,74.12
2023-04-08T22:22:16.575Z,74.19
2023-04-08T22:25:20.926Z,74.31
2023-04-08T22:28:23.946Z,74.71
2023-04-08T22:31:27.090Z,74.64
2023-04-08T22:34:29.757Z,74.70
2023-04-08T22:37:36.082Z,74.86
2023-04-08T22:40:40.211Z,75.08
2023-04-08T22:43:43.142Z,75.33
2023-04-08T22:46:45.992Z,75.29
2023-04-08T22:49:48.614Z,75.13
2023-04-08T22:52:51.279Z,75.39
2023-04-08T22:55:55.352Z,75.48
2023-04-08T22:58:58.058Z,75.62
2023-04-08T23:02:00.849Z,75.50
2023-04-08T23:05:04.105Z,75.68
2023-04-08T23:08:06.834Z,75.70
2023-04-08T23:11:10.879Z,75.88
2023-04-08T23:14:13.521Z,76.06
2023-04-08T23:17:16.171Z,76.09
2023-04-08T23:20:19.073Z,76.15
2023-04-08T23:23:24.120Z,76.17
2023-04-08T23:26:28.194Z,76.38
2023-04-08T23:29:31.586Z,76.60
2023-04-08T23:32:34.390Z,76.72
2023-04-08T23:35:37.215Z,76.70
2023-04-08T23:38:40.220Z,76.64
2023-04-08T23:41:44.295Z,76.84
2023-04-08T23:44:48.132Z,77.18
2023-04-08T23:47:51.632Z,77.32
2023-04-08T23:50:55.137Z,77.38
2023-04-08T23:53:57.824Z,77.20
2023-04-08T23:57:05.055Z,77.33
